Latest Weather Observations for Scottsdale

IDT60801

Issued at 12:02 pm EDT Wednesday 28 January 2015 (issued every 30 minutes, with the page automatically refreshed every 10 minutes)

About weather observations | Map of weather stations | Latest weather observations for TAS | Other Formats
Station Details ID: 091219 Name: SCOTTSDALE (WEST MINSTONE ROAD) Lat: -41.17 Lon: 147.49 Height: 197.5 m
Data from the previous 72 hours. | See also: Recent months at Scottsdale
Date/Time
EDT
Temp
°C
App
Temp
°C
Dew
Point
Rel
Hum
%
Delta-T
°C
Wind Press
QNH
hPa
Press
MSL
hPa
Rain
since 9 am
mm
Dir
 
Spd
km/h
Gust
km/h
Spd
kts
Gust
kts
28/12:00pm 18.1 14.8 4.8 41 6.4 S 11 17 6 9 1021.3 1021.0 0.0
28/11:30am 16.9 11.5 4.5 43 5.9 E 22 33 12 18 1021.3 - 0.0
28/11:00am 17.2 14.4 5.2 45 5.8 NE 9 15 5 8 1021.5 - 0.0
28/10:30am 16.3 13.8 4.7 46 5.5 SSE 7 11 4 6 1021.6 - 0.0
28/10:00am 15.5 12.5 3.9 46 5.4 WSW 9 15 5 8 1021.5 - 0.0
28/09:30am 14.9 11.5 3.9 47 5.1 S 11 17 6 9 1021.4 - 0.0
28/09:00am 14.0 9.9 4.3 52 4.5 S 15 24 8 13 1021.3 1021.0 0.0
28/08:30am 13.1 8.7 4.7 56 3.9 S 17 22 9 12 1021.2 - 0.0
28/08:00am 12.5 9.9 6.2 65 3.0 SSW 9 15 5 8 1020.8 - 0.0
28/07:30am 11.6 8.1 5.6 66 2.8 S 13 17 7 9 1020.5 - 0.0
28/07:00am 9.7 6.8 6.7 81 1.4 SSE 11 17 6 9 1020.2 - 0.0
28/06:30am 9.0 6.8 6.0 81 1.4 SSW 7 9 4 5 1019.9 - 0.0
28/06:00am 7.4 5.1 5.6 88 0.8 ESE 7 9 4 5 1019.7 1019.4 0.0
28/05:30am 9.6 7.1 6.4 80 1.5 SSW 9 15 5 8 1019.4 - 0.0
28/05:00am 9.7 6.8 6.7 81 1.4 SSW 11 15 6 8 1019.3 - 0.0
28/04:30am 9.3 6.8 6.5 83 1.3 SSW 9 11 5 6 1019.1 - 0.0
28/04:00am 7.9 6.9 5.7 86 1.0 CALM 0 0 0 0 1019.3 - 0.0
28/03:30am 8.3 7.1 6.6 89 0.8 S 2 6 1 3 1019.4 - 0.0
28/03:00am 8.9 7.0 6.5 85 1.1 SSW 6 9 3 5 1019.5 1019.2 0.0
28/02:30am 8.2 7.3 6.2 87 0.9 CALM 0 0 0 0 1019.5 - 0.0
28/02:00am 8.7 6.8 6.6 87 1.0 SSW 6 7 3 4 1019.6 - 0.0
28/01:30am 8.9 7.4 7.0 88 0.9 E 4 7 2 4 1019.7 - 0.0
28/01:00am 9.8 8.0 7.3 84 1.2 S 6 9 3 5 1019.6 - 0.0
28/12:30am 10.6 8.7 7.7 82 1.4 S 7 9 4 5 1019.5 - 0.0
28/12:00am 10.8 8.2 7.9 82 1.4 SE 11 13 6 7 1019.5 1019.2 0.0
 
Date/Time
EDT
Temp
°C
App
Temp
°C
Dew
Point
Rel
Hum
%
Delta-T
°C
Wind Press
QNH
hPa
Press
MSL
hPa
Rain
since 9 am
mm
Dir
 
Spd
km/h
Gust
km/h
Spd
kts
Gust
kts
27/11:30pm 11.7 9.2 8.1 78 1.8 SE 11 15 6 8 1019.3 - 0.0
27/11:00pm 12.6 8.9 8.0 73 2.3 SE 17 24 9 13 1019.2 - 0.0
27/10:30pm 12.9 8.7 8.1 72 2.4 ESE 20 30 11 16 1019.2 - 0.0
27/10:00pm 13.0 9.0 8.9 76 2.1 E 20 28 11 15 1019.0 - 0.0
27/09:30pm 13.0 10.6 9.9 81 1.6 E 13 19 7 10 1018.8 - 0.0
27/09:00pm 13.4 11.4 10.1 80 1.7 E 11 15 6 8 1018.5 1018.2 0.0
27/08:30pm 13.6 10.7 9.5 76 2.1 E 15 20 8 11 1018.2 - 0.0
27/08:00pm 13.8 10.0 9.1 73 2.4 E 19 24 10 13 1017.4 - 0.0
27/07:30pm 14.2 11.4 10.0 76 2.2 ESE 15 20 8 11 1017.4 - 0.0
27/07:00pm 14.2 10.6 10.6 79 1.9 ESE 20 26 11 14 1017.0 - 0.0
27/06:30pm 14.7 11.6 11.6 82 1.7 ESE 19 24 10 13 1016.7 - 0.0
27/06:00pm 16.2 13.8 8.6 60 3.9 ENE 11 17 6 9 1016.2 1015.9 0.0
27/05:30pm 16.6 13.0 6.8 52 4.9 N 15 19 8 10 1015.8 - 0.0
27/05:00pm 16.8 13.0 5.7 48 5.4 NNE 15 20 8 11 1015.6 - 0.0
27/04:30pm 18.7 14.2 6.1 43 6.3 N 19 26 10 14 1015.4 - 0.0
27/04:00pm 18.9 14.5 6.6 44 6.2 N 19 28 10 15 1015.2 - 0.0
27/03:30pm 19.0 14.8 7.3 46 6.0 N 19 24 10 13 1015.3 - 0.0
27/03:00pm 20.1 16.8 8.0 45 6.3 N 15 30 8 16 1015.2 1014.9 0.0
27/02:30pm 19.5 16.3 8.4 48 5.8 NNW 15 20 8 11 1015.4 - 0.0
27/02:00pm 20.0 16.5 8.9 48 5.9 N 17 26 9 14 1015.5 - 0.0
27/01:30pm 19.0 15.2 7.5 47 5.9 N 17 28 9 15 1015.7 - 0.0
27/01:00pm 18.3 14.2 7.8 50 5.4 N 19 26 10 14 1015.9 - 0.0
27/12:30pm 18.4 14.9 7.4 48 5.6 N 15 22 8 12 1016.1 - 0.0
27/12:00pm 18.7 15.6 9.0 53 5.1 NW 15 22 8 12 1016.4 1016.1 0.0
27/11:30am 17.0 14.7 7.3 53 4.9 N 9 17 5 9 1016.5 - 0.0
27/11:00am 17.6 15.5 8.1 53 4.9 WNW 9 17 5 9 1016.5 - 0.0
27/10:30am 16.5 14.5 8.8 60 4.0 NW 9 15 5 8 1016.5 - 0.0
27/10:00am 15.4 12.9 8.3 62 3.6 NW 11 15 6 8 1016.6 - 0.0
27/09:30am 16.1 12.6 8.7 61 3.8 NE 17 24 9 13 1016.4 - 0.0
27/09:00am 15.9 13.4 8.3 60 3.9 ENE 11 19 6 10 1016.6 1016.3 0.0
27/08:30am 15.0 12.5 8.1 63 3.5 E 11 15 6 8 1016.6 - 0.0
27/08:00am 13.9 12.5 9.7 76 2.2 SE 7 11 4 6 1016.4 - 0.0
27/07:30am 12.7 10.7 8.7 76 2.0 SE 9 11 5 6 1016.2 - 0.0
27/07:00am 11.0 8.6 8.6 85 1.2 SE 11 13 6 7 1015.9 - 0.0
27/06:30am 9.4 6.7 7.5 88 0.9 SSE 11 11 6 6 1015.9 - 0.0
27/06:00am 9.6 6.6 7.7 88 0.9 SE 13 15 7 8 1015.8 1015.5 0.0
27/05:30am 9.5 6.8 7.4 87 1.0 ESE 11 13 6 7 1015.8 - 0.0
27/05:00am 10.2 7.7 8.2 87 1.0 SE 11 15 6 8 1015.8 - 0.0
27/04:30am 10.6 8.6 8.6 87 1.0 SSE 9 11 5 6 1015.8 - 0.0
27/04:00am 11.2 9.8 9.0 86 1.1 SE 6 9 3 5 1015.8 - 0.0
27/03:30am 11.2 10.7 9.2 87 1.0 SE 2 6 1 3 1015.8 - 0.0
27/03:00am 10.8 9.3 9.2 90 0.8 ESE 7 9 4 5 1016.0 1015.7 0.0
27/02:30am 10.7 9.4 9.3 91 0.7 SSE 6 7 3 4 1016.1 - 0.0
27/02:00am 10.5 8.6 9.1 91 0.7 ESE 9 9 5 5 1016.3 - 0.0
27/01:30am 10.5 8.6 8.9 90 0.8 ESE 9 11 5 6 1016.4 - 0.0
27/01:00am 10.8 8.5 9.0 89 0.9 E 11 13 6 7 1016.4 - 0.0
27/12:30am 10.8 8.4 8.8 87 1.0 E 11 11 6 6 1016.6 - 0.0
27/12:00am 11.7 9.0 9.1 84 1.3 ENE 13 15 7 8 1016.4 1016.1 0.0
 
Date/Time
EDT
Temp
°C
App
Temp
°C
Dew
Point
Rel
Hum
%
Delta-T
°C
Wind Press
QNH
hPa
Press
MSL
hPa
Rain
since 9 am
mm
Dir
 
Spd
km/h
Gust
km/h
Spd
kts
Gust
kts
26/11:30pm 11.4 9.6 9.4 87 1.0 E 9 13 5 7 1016.4 - 0.0
26/11:00pm 11.6 9.0 9.2 85 1.2 ENE 13 15 7 8 1016.2 - 0.0
26/10:30pm 13.0 10.0 9.3 78 1.9 NE 15 20 8 11 1016.1 - 0.0
26/10:00pm 13.9 11.0 9.7 76 2.2 ENE 15 20 8 11 1016.0 - 0.0
26/09:30pm 14.5 11.2 9.5 72 2.6 NE 17 22 9 12 1015.6 - 0.0
26/09:00pm 14.0 11.0 9.1 72 2.5 NE 15 19 8 10 1015.2 1014.9 0.0
26/08:30pm 14.7 11.1 8.4 66 3.2 NNE 17 20 9 11 1014.7 - 0.0
26/08:00pm 16.3 12.2 7.8 57 4.3 NNE 19 24 10 13 1014.3 - 0.0
26/07:30pm 17.5 13.9 6.7 49 5.4 NNW 15 22 8 12 1013.6 - 0.0
26/07:00pm 18.3 13.5 4.9 41 6.5 NW 19 30 10 16 1013.2 - 0.0
26/06:30pm 19.0 14.5 6.0 42 6.5 NNW 19 30 10 16 1012.7 - 0.0
26/06:00pm 19.3 14.1 5.3 39 6.9 NW 22 35 12 19 1012.4 1012.1 0.0
26/05:30pm 20.0 15.5 6.1 40 7.0 NW 19 26 10 14 1012.2 - 0.0
26/05:00pm 20.3 16.4 5.2 37 7.5 NNW 15 22 8 12 1012.4 - 0.0
26/04:30pm 21.0 17.1 3.6 32 8.4 NW 13 20 7 11 1012.7 - 0.0
26/04:00pm 20.7 16.8 3.4 32 8.3 W 13 20 7 11 1012.9 - 0.0
26/03:30pm 19.5 15.8 2.3 32 8.0 NW 11 20 6 11 1012.7 - 0.0
26/03:00pm 20.5 16.4 4.6 35 7.8 WNW 15 22 8 12 1012.7 1012.3 0.0
26/02:30pm 19.7 15.8 3.6 34 7.7 WNW 13 20 7 11 1012.9 - 0.0
26/02:00pm 18.6 15.1 3.7 37 7.1 W 11 19 6 10 1013.0 - 0.0
26/01:30pm 19.1 15.0 4.4 38 7.1 WNW 15 28 8 15 1013.3 - 0.0
26/01:00pm 18.4 14.8 4.8 40 6.6 NW 13 19 7 10 1013.4 - 0.0
26/12:30pm 17.3 13.6 4.6 43 6.1 NW 13 22 7 12 1013.3 - 0.0
26/12:00pm 17.3 13.9 5.7 46 5.7 WNW 13 20 7 11 1013.4 1013.1 0.0
26/11:30am 16.1 12.9 5.3 48 5.2 WNW 11 19 6 10 1013.4 - 0.0
26/11:00am 16.1 13.1 5.8 50 5.0 NNW 11 17 6 9 1013.5 - 0.0
26/10:30am 14.5 10.8 4.5 51 4.7 NW 13 20 7 11 1013.6 - 0.0
26/10:00am 14.0 10.8 4.9 54 4.3 WNW 11 17 6 9 1013.4 - 0.0
26/09:30am 13.2 10.0 5.1 58 3.8 NW 11 15 6 8 1013.3 - 0.0
26/09:00am 12.6 9.3 4.6 58 3.7 WSW 11 17 6 9 1013.4 1013.1 0.8
26/08:30am 10.9 8.0 4.5 64 2.9 WNW 9 11 5 6 1013.1 - 0.8
26/08:00am 9.7 7.0 3.8 66 2.6 WSW 7 13 4 7 1012.9 - 0.8
26/07:30am 8.9 7.6 3.9 71 2.2 CALM 0 4 0 2 1012.1 - 0.8
26/07:00am 6.6 4.4 3.6 81 1.3 N 4 9 2 5 1011.8 - 0.8
26/06:30am 4.9 2.1 3.0 87 0.8 E 7 9 4 5 1011.4 - 0.8
26/06:00am 4.4 1.2 2.9 90 0.6 ESE 9 13 5 7 1010.8 1010.5 0.8
26/05:30am 5.0 2.4 3.3 89 0.7 SE 6 9 3 5 1010.5 - 0.8
26/05:00am 5.7 3.1 3.3 84 1.0 SE 6 7 3 4 1010.0 - 0.8
26/04:30am 5.7 2.9 3.1 83 1.1 WSW 7 11 4 6 1009.6 - 0.8
26/04:00am 7.7 4.2 3.3 74 1.9 SW 11 15 6 8 1009.4 - 0.8
26/03:30am 7.7 4.9 3.3 74 1.9 SW 7 11 4 6 1009.1 - 0.8
26/03:00am 6.9 4.6 2.9 76 1.7 W 4 7 2 4 1008.9 1008.6 0.8
26/02:30am 7.0 4.4 3.0 76 1.7 NNW 6 7 3 4 1008.7 - 0.8
26/02:00am 7.9 5.0 2.5 69 2.3 NW 7 15 4 8 1008.4 - 0.8
26/01:30am 6.3 3.7 3.0 79 1.4 N 6 9 3 5 1008.3 - 0.8
26/01:00am 7.3 5.8 3.1 75 1.8 CALM 0 6 0 3 1008.3 - 0.8
26/12:30am 7.6 4.8 2.9 72 2.0 NNW 7 13 4 7 1008.3 - 0.8
26/12:00am 7.6 4.9 2.9 72 2.0 N 6 7 3 4 1008.1 1007.7 0.8
 
Date/Time
EDT
Temp
°C
App
Temp
°C
Dew
Point
Rel
Hum
%
Delta-T
°C
Wind Press
QNH
hPa
Press
MSL
hPa
Rain
since 9 am
mm
Dir
 
Spd
km/h
Gust
km/h
Spd
kts
Gust
kts
25/11:30pm 8.6 5.8 3.0 68 2.4 WNW 7 13 4 7 1007.9 - 0.8
25/11:00pm 8.6 6.0 3.0 68 2.4 NNW 6 9 3 5 1007.6 - 0.8
25/10:30pm 9.6 5.1 2.4 61 3.1 WNW 15 26 8 14 1007.0 - 0.8
25/10:00pm 10.0 5.5 2.1 58 3.4 WNW 15 26 8 14 1006.9 - 0.8
25/09:30pm 10.6 6.0 1.7 54 3.8 W 15 28 8 15 1006.2 - 0.8
25/09:00pm 11.6 5.3 1.3 49 4.4 W 24 43 13 23 1005.5 1005.2 0.8
25/08:30pm 12.1 7.1 1.4 48 4.6 W 17 30 9 16 1005.1 - 0.8
25/08:00pm 12.6 7.3 1.8 47 4.7 W 19 28 10 15 1004.6 - 0.8
25/07:30pm 13.7 8.4 3.1 48 4.8 W 20 41 11 22 1003.9 - 0.8
25/07:00pm 13.9 9.2 5.3 56 4.1 W 19 33 10 18 1003.5 - 0.8
25/06:30pm 13.2 8.1 5.9 61 3.5 W 22 35 12 19 1003.1 - 0.8
25/06:00pm 12.5 8.3 7.4 71 2.5 W 19 30 10 16 1002.7 1002.3 0.8
25/05:42pm 12.4 5.0 5.2 61 3.4 W 33 67 18 36 1002.5 - 0.2
25/05:35pm 14.6 7.6 2.1 43 5.6 W 28 46 15 25 1002.2 - 0.0
25/05:30pm 15.4 8.9 2.7 42 5.8 W 26 56 14 30 1002.0 - 0.0
25/05:00pm 15.9 8.0 1.3 37 6.5 W 32 50 17 27 1001.6 - 0.0
25/04:43pm 15.4 8.1 2.7 42 5.8 W 30 50 16 27 1001.7 - 0.0
25/04:30pm 15.5 9.2 4.0 46 5.4 W 26 41 14 22 1001.6 - 0.0
25/04:08pm 15.2 8.1 3.3 45 5.5 WNW 30 48 16 26 1001.4 - 0.0
25/04:00pm 16.5 9.9 4.3 44 5.8 WNW 28 43 15 23 1001.4 - 0.0
25/03:41pm 16.2 9.4 5.3 48 5.3 WNW 30 48 16 26 1001.4 - 0.0
25/03:30pm 16.8 10.9 5.6 47 5.5 WNW 26 44 14 24 1001.5 - 0.0
25/03:00pm 16.7 10.0 3.8 42 6.1 WNW 28 48 15 26 1001.4 1001.1 0.0
25/02:32pm 15.9 8.4 3.7 44 5.7 WNW 32 50 17 27 1001.4 - 0.0
25/02:30pm 16.8 9.2 3.9 42 6.1 WNW 33 50 18 27 1001.3 - 0.0
25/02:00pm 16.0 9.6 5.0 48 5.3 WNW 28 46 15 25 1001.0 - 0.0
25/01:35pm 16.7 9.8 2.6 38 6.5 W 28 48 15 26 1000.7 - 0.0
25/01:30pm 17.0 10.6 3.4 40 6.3 W 26 41 14 22 1000.7 - 0.0
25/01:00pm 16.8 9.0 1.8 36 6.8 W 32 50 17 27 1000.6 - 0.0
25/12:54pm 17.0 10.1 2.8 38 6.5 WNW 28 50 15 27 1000.5 - 0.0
25/12:30pm 16.9 11.4 5.7 47 5.5 WNW 24 39 13 21 1000.5 - 0.0

Other Formats:

Comma delimited format used in spreadsheet applications
http://www.bom.gov.au/fwo/IDT60801/IDT60801.94972.axf

JavaScript Object Notation format (JSON) in row-major order
http://www.bom.gov.au/fwo/IDT60801/IDT60801.94972.json